Portada
METAR-TAF:

METAR-TAF

Aeropuertos :

Al Bahah, Arabia Saudita

latitud: 20-18N, longitud: 041-38E, altitud: 1652 m

Observación

El informe se hizo hace 48 minutos, a las 12:00 UTC
Viento 10 kt del suroeste
Temperatura 24°C
Humedad 54%
Presión 1018 hPa
Visibilidad 10 km o más
Nubes dispersas a una altura de 3000 ft

METAR: OEBA 271200Z 23010KT 9999 SCT030 24/14 Q1018 NOSIG

Hora: 15:48 (12:48 UTC)

Pronóstico

El informe se hizo hace 1 hora y 48 minutos, a las 11:00 UTC
Pronóstico válido del 27 a las 12 UTC al 28 a las 18 UTC
Viento 14 kt del sur
Visibilidad: 8000 m
Escasas nubes a una altura de 3000 ft
Temporalmente
del 27 a las 12 UTC al 27 a las 18 UTC
Escasas nubes a una altura de 2500 ft, Cumulonimbus.
Nubes dispersas a una altura de 3000 ft
Evolucionando progresivamente
del 27 a las 18 UTC al 27 a las 20 UTC
Viento 3 kt con dirección variable

TAF: OEBA 271100Z 2712/2818 18014KT 8000 FEW030 TEMPO 2712/2718 FEW025CB SCT030 BECMG 2718/2720 VRB03KT

Observaciones y pronósticos meteorológicos de más de 4000 aeropuertos (mensajes METAR y TAF).

Los puntos amarillos y rojos representan las estaciones disponibles.

Ponga el ratón en el punto deseado para ver el nombre de la estación.

Haga clic para ver las observaciones y los pronósticos meteorológicos.

Para cambiar el mapa : haga clic en los botones verdes con una cruz de color negro para hacer un zoom, en el botón verde con un guión para alejar o en las flechas verdes para mapas adyacentes.


METAR-TAF: